Terminal Aerodrome Forecast
Issued by NWS

Home | Current Version | Previous Version | Text Only | Print | Product List | Glossary On
Versions: 1 2 3 4 5 6 7 8 9 10 11 12 13 14 15 16
000
FTUS45 KABQ 031740
TAFSAF
TAF
KSAF 031740Z 0318/0418 01005KT P6SM VCSH SCT035 BKN060
     FM032100 16011KT P6SM VCTS SCT035 BKN060CB
     FM040000 14011KT P6SM VCSH SCT035 BKN060
      TEMPO 0401/0404 VRB20G30KT 6SM -TSRA OVC060CB
     FM040600 01007KT P6SM BKN080=

USA.gov is the U.S. government's official web portal to all federal, state and local government web resources and services.